Sunday, July 22, 2018, 4:20 PM GMT
Back to Local

CYHZ, Halifax International Airport

Location: , , Canada Lat: 44.883
Local Time: 4:20 PM GMT (16:20 GMT) Lon: -63.5
Time Zone: GMT Elev: 475 ft

Show me the last for .
Show Coded

Time T Td Feel RH Dir Speed Gust Alt SLP Vis Weather Sky Remarks
2018-07-22 16:10 72 72 76 100 170° 8 - 30.32 30.32 1 BR OVC002 None
2018-07-22 16:00 72 72 76 100 170° 9 - 30.32 30.32 3 BR OVC003 None
2018-07-22 15:19 72 72 76 100 210° 6 - 30.31 30.32 2 BR OVC003 None
2018-07-22 15:00 70 70 - 100 170° 7 - 30.31 30.32 1 BR OVC002 None
2018-07-22 14:31 70 70 - 100 190° 5 - 30.32 30.32 1 BR OVC002 None
2018-07-22 14:18 68 68 - 100 160° 6 - 30.32 30.32 0 -SHRA BR VV002 None
2018-07-22 14:14 66 66 - 100 180° 6 - 30.32 30.32 0 -SHRA FG VV001 None
2018-07-22 14:00 66 66 - 100 170° 7 - 30.31 30.32 0 FG VV001 None
2018-07-22 13:50 64 64 - 100 150° 7 - 30.31 30.32 0 FG VV001 None
2018-07-22 13:00 64 64 - 100 130° 8 - 30.31 30.31 0 FG VV001 None
2018-07-22 12:48 64 64 - 100 130° 7 - 30.30 30.31 0 FG VV001 None
2018-07-22 12:23 63 63 - 100 150° 5 - 30.29 30.30 0 FG VV001 None
2018-07-22 12:19 63 63 - 100 150° 6 - 30.29 30.30 0 -SHRA BR VV002 None
2018-07-22 12:00 63 63 - 100 140° 5 - 30.29 30.29 1 -SHRA BR OVC003 None
2018-07-22 11:48 63 63 - 100 140° 7 - 30.29 30.29 1 -SHRA BR OVC003 None
2018-07-22 11:31 63 63 - 100 150° 5 - 30.29 30.29 1 -SHRA BR VV007 None
2018-07-22 11:14 61 61 - 100 Variable 2 - 30.29 30.29 1 -SHRA BR VV003 None
2018-07-22 11:00 61 61 - 100 140° 6 - 30.28 30.28 1 -SHRA BR BKN014 OVC028 None
2018-07-22 10:22 61 61 - 100 130° 6 - 30.27 30.27 2 -SHRA +BLSA BKN015 OVC025 None
2018-07-22 10:00 61 61 - 100 150° 7 - 30.27 30.27 5 -SHRA BR BKN016 OVC030 None
2018-07-22 09:47 61 61 - 100 150° 8 - 30.26 30.27 4 -SHRA BR SCT018 OVC030 None
2018-07-22 09:29 61 61 - 100 140° 8 - 30.26 30.27 3 BR OVC022 None
2018-07-22 09:09 61 61 - 100 130° 8 - 30.26 30.26 15 BKN030 None
2018-07-22 09:04 61 61 - 100 140° 8 - 30.26 30.26 1 BR BKN028 None
2018-07-22 09:00 61 61 - 100 140° 8 - 30.26 30.26 0 BR OVC030 None
2018-07-22 08:41 61 61 - 100 150° 7 - 30.26 30.26 0 FG OVC030 None
2018-07-22 08:16 61 61 - 100 160° 6 - 30.25 30.26 0 BR VV002 None
2018-07-22 08:00 61 61 - 100 170° 7 - 30.25 30.26 0 FG VV001 None
2018-07-22 07:00 61 61 - 100 170° 5 - 30.25 30.26 0 FG VV001 None
2018-07-22 06:00 61 61 - 100 170° 7 - 30.25 30.25 0 FG VV001 None
2018-07-22 05:12 63 63 - 100 220° 6 - 30.24 30.24 0 FG VV001 None
2018-07-22 05:00 63 63 - 100 210° 7 - 30.24 30.24 0 FG VV001 None
2018-07-22 04:00 63 63 - 100 200° 9 - 30.23 30.24 0 FG VV001 None
2018-07-22 03:48 63 63 - 100 190° 8 - 30.23 30.23 0 FG VV001 None
2018-07-22 03:44 63 63 - 100 200° 8 - 30.23 30.23 0 BR VV002 None
2018-07-22 03:16 63 63 - 100 200° 7 - 30.22 30.22 1 BR OVC002 None
2018-07-22 03:00 64 64 - 100 220° 8 - 30.22 30.22 4 BR OVC002 None
2018-07-22 02:18 64 64 - 100 210° 12 18 30.21 30.21 5 BR OVC002 None
2018-07-22 02:09 64 64 - 100 200° 10 17 30.21 30.21 1 BR OVC002 None
2018-07-22 02:05 64 64 - 100 200° 9 17 30.21 30.21 0 BR VV002 None
2018-07-22 02:00 64 64 - 100 200° 12 - 30.21 30.21 1 -RA BR OVC002 None
2018-07-22 01:49 64 64 - 100 210° 13 - 30.20 30.20 2 -RA BR SCT004 OVC020 None
2018-07-22 01:00 64 64 - 100 200° 6 - 30.19 30.19 0 BR VV003 None
2018-07-22 00:00 63 63 - 100 210° 9 - 30.16 30.17 1 -DZ BR OVC003 None
2018-07-21 23:38 63 63 - 100 220° 7 - 30.16 30.17 1 -DZ BR OVC005 None
2018-07-21 23:00 63 63 - 100 200° 5 - 30.15 30.15 1 -DZ BR OVC003 None
2018-07-21 22:25 63 63 - 100 170° 5 - 30.14 30.15 1 -DZ BR OVC003 None
2018-07-21 22:00 63 63 - 100 130° 8 - 30.13 30.14 1 BR OVC003 None
2018-07-21 21:13 64 64 - 100 110° 12 - 30.12 30.12 2 BR OVC004 None
2018-07-21 21:00 64 64 - 100 110° 15 21 30.12 30.13 4 BR OVC006 None
2018-07-21 20:36 64 64 - 100 90° 13 - 30.11 30.12 4 BR BKN006 OVC012 None
2018-07-21 20:00 68 66 - 93 110° 16 - 30.12 30.12 2 BR OVC005 None
2018-07-21 19:44 68 68 - 100 110° 13 - 30.12 30.12 2 BR OVC004 None
2018-07-21 19:32 68 66 - 93 110° 16 - 30.12 30.12 3 BR OVC004 None
2018-07-21 19:00 70 68 - 94 90° 13 20 30.11 30.12 15 OVC007 None
2018-07-21 18:15 70 70 - 100 100° 15 21 30.12 30.13 7 BKN006 OVC015 None
2018-07-21 18:00 70 70 - 100 100° 17 - 30.13 30.13 5 -DZ BR BKN005 OVC013 None
2018-07-21 17:50 70 70 - 100 110° 14 21 30.13 30.14 3 -DZ BR BKN004 OVC013 None
2018-07-21 17:00 70 68 - 94 100° 12 - 30.14 30.14 2 -DZ BR OVC003 None

Support USWX by starting your Amazon purchase here.